Welcome to Des Moines Iowa Weather. I am an independent private personal weather station on the Northwest Side of Des Moines, Iowa. Just East of Windsor Heights and just West of Glendale . This site is also mobile friendly.

There are no active watches, warnings or advisories


Visit our other weather sites:

Historical Data

Weather Station Setup



Weather Underground History page Text

Daily Summary for February 25, 2018 Units:  English    Metric   Both
« Previous Day
Next Day »
Daily Weekly Monthly Yearly Custom
  High: Low: Average:
Temperature: 42.7 °F 22.2 °F 32.1 °F
Dew Point: 29.0 °F 18.0 °F 24.9 °F
Humidity: 92 % 54 % 76 %
Wind Speed: 7.0 mph 0.0 mph 1 mph
Wind Gust: 11.0 mph - -
Wind:- - South
Pressure: 30.10 in 29.76 in -
Precipitation: 0.00 in    
Historical Graphs
 
 
Tabular Data for February 25, 2018
Time Temperature Dew Point Pressure Wind Wind Speed Wind Gust Humidity Rainfall Rate (Hourly)
00:00 29.9 °F 27.9 °F 29.76 in WNW 1.0 mph 6.0 mph 92 % 0.00 in
00:03 30.1 °F 28.0 °F 29.76 in Calm   4.0 mph 92 % 0.00 in
00:05 29.9 °F 27.9 °F 29.76 in WNW 1.0 mph 6.0 mph 92 % 0.00 in
00:10 29.9 °F 27.9 °F 29.76 in WNW 1.0 mph 6.0 mph 92 % 0.00 in
00:15 30.0 °F 28.0 °F 29.76 in WNW 1.0 mph 4.0 mph 92 % 0.00 in
00:18 30.1 °F 28.0 °F 29.76 in WNW 1.0 mph 4.0 mph 92 % 0.00 in
00:20 30.0 °F 28.0 °F 29.76 in WNW 1.0 mph 4.0 mph 92 % 0.00 in
00:25 30.0 °F 28.0 °F 29.76 in WNW 1.0 mph 4.0 mph 92 % 0.00 in
00:30 30.1 °F 28.1 °F 29.76 in WNW 1.0 mph 6.0 mph 92 % 0.00 in
00:33 30.3 °F 28.0 °F 29.77 in SSW 1.0 mph 4.0 mph 92 % 0.00 in
00:35 30.1 °F 28.1 °F 29.76 in WNW 1.0 mph 6.0 mph 92 % 0.00 in
00:40 30.1 °F 28.1 °F 29.76 in WNW 1.0 mph 6.0 mph 92 % 0.00 in
00:45 30.3 °F 28.3 °F 29.77 in WNW 1.0 mph 4.0 mph 92 % 0.00 in
00:48 30.4 °F 28.0 °F 29.78 in West 3.0 mph 7.0 mph 92 % 0.00 in
00:50 30.3 °F 28.3 °F 29.77 in WNW 1.0 mph 4.0 mph 92 % 0.00 in
00:55 30.3 °F 28.3 °F 29.77 in WNW 1.0 mph 4.0 mph 92 % 0.00 in
01:00 30.4 °F 28.4 °F 29.78 in West 2.0 mph 7.0 mph 92 % 0.00 in
01:03 30.3 °F 28.0 °F 29.79 in WNW 7.0 mph 11.0 mph 90 % 0.00 in
01:05 30.4 °F 28.4 °F 29.78 in West 2.0 mph 7.0 mph 92 % 0.00 in
01:10 30.4 °F 28.4 °F 29.78 in West 2.0 mph 7.0 mph 92 % 0.00 in
01:15 30.3 °F 28.0 °F 29.80 in West 2.0 mph 11.0 mph 91 % 0.00 in
01:18 29.9 °F 27.0 °F 29.80 in WNW 3.0 mph 10.0 mph 88 % 0.00 in
01:20 30.3 °F 28.0 °F 29.80 in West 2.0 mph 11.0 mph 91 % 0.00 in
01:25 30.3 °F 28.0 °F 29.80 in West 2.0 mph 11.0 mph 91 % 0.00 in
01:30 29.9 °F 27.1 °F 29.80 in WNW 3.0 mph 10.0 mph 89 % 0.00 in
01:33 29.6 °F 26.0 °F 29.80 in North 2.0 mph 8.0 mph 87 % 0.00 in
01:35 29.9 °F 27.1 °F 29.80 in WNW 3.0 mph 10.0 mph 89 % 0.00 in
01:40 29.9 °F 27.1 °F 29.80 in WNW 3.0 mph 10.0 mph 89 % 0.00 in
01:45 29.7 °F 26.3 °F 29.80 in West 2.0 mph 8.0 mph 87 % 0.00 in
01:48 29.5 °F 26.0 °F 29.81 in North 2.0 mph 8.0 mph 87 % 0.00 in
01:50 29.7 °F 26.3 °F 29.80 in West 2.0 mph 8.0 mph 87 % 0.00 in
01:55 29.7 °F 26.3 °F 29.80 in West 2.0 mph 8.0 mph 87 % 0.00 in
02:00 29.5 °F 26.1 °F 29.81 in North 2.0 mph 8.0 mph 87 % 0.00 in
02:03 29.6 °F 26.0 °F 29.82 in North 1.0 mph 6.0 mph 87 % 0.00 in
02:05 29.5 °F 26.1 °F 29.81 in North 2.0 mph 8.0 mph 87 % 0.00 in
02:10 29.5 °F 26.1 °F 29.81 in North 2.0 mph 8.0 mph 87 % 0.00 in
02:15 29.6 °F 26.2 °F 29.82 in North 2.0 mph 8.0 mph 87 % 0.00 in
02:20 29.6 °F 26.2 °F 29.82 in North 2.0 mph 8.0 mph 87 % 0.00 in
02:22 29.5 °F 26.0 °F 29.83 in North 3.0 mph 6.0 mph 87 % 0.00 in
02:25 29.6 °F 26.2 °F 29.82 in North 2.0 mph 8.0 mph 87 % 0.00 in
02:30 29.6 °F 26.2 °F 29.83 in North 3.0 mph 10.0 mph 87 % 0.00 in
02:33 29.2 °F 26.0 °F 29.83 in North 3.0 mph 8.0 mph 86 % 0.00 in
02:35 29.6 °F 26.2 °F 29.83 in North 3.0 mph 10.0 mph 87 % 0.00 in
02:40 29.6 °F 26.2 °F 29.83 in North 3.0 mph 10.0 mph 87 % 0.00 in
02:45 29.3 °F 25.6 °F 29.83 in North 3.0 mph 8.0 mph 86 % 0.00 in
02:49 28.3 °F 24.0 °F 29.83 in WNW 2.0 mph 7.0 mph 84 % 0.00 in
02:50 29.3 °F 25.6 °F 29.83 in North 3.0 mph 8.0 mph 86 % 0.00 in
02:55 29.3 °F 25.6 °F 29.83 in North 3.0 mph 8.0 mph 86 % 0.00 in
03:00 28.5 °F 24.3 °F 29.83 in WNW 3.0 mph 8.0 mph 84 % 0.00 in
03:03 27.4 °F 23.0 °F 29.84 in WSW 2.0 mph 5.0 mph 84 % 0.00 in
03:05 28.5 °F 24.3 °F 29.83 in WNW 3.0 mph 8.0 mph 84 % 0.00 in
03:10 28.5 °F 24.3 °F 29.83 in WNW 3.0 mph 8.0 mph 84 % 0.00 in
03:15 27.6 °F 23.4 °F 29.84 in WNW 2.0 mph 7.0 mph 84 % 0.00 in
03:19 26.5 °F 22.0 °F 29.84 in Calm   6.0 mph 84 % 0.00 in
03:20 27.6 °F 23.4 °F 29.84 in WNW 2.0 mph 7.0 mph 84 % 0.00 in
03:25 27.6 °F 23.4 °F 29.84 in WNW 2.0 mph 7.0 mph 84 % 0.00 in
03:30 26.7 °F 22.5 °F 29.84 in West 2.0 mph 9.0 mph 84 % 0.00 in
03:34 25.7 °F 22.0 °F 29.84 in Calm   5.0 mph 84 % 0.00 in
03:35 26.7 °F 22.5 °F 29.84 in West 2.0 mph 9.0 mph 84 % 0.00 in
03:40 26.7 °F 22.5 °F 29.84 in West 2.0 mph 9.0 mph 84 % 0.00 in
03:45 25.9 °F 21.5 °F 29.84 in West 2.0 mph 7.0 mph 83 % 0.00 in
03:49 25.2 °F 21.0 °F 29.85 in Calm   4.0 mph 84 % 0.00 in
03:50 25.9 °F 21.5 °F 29.84 in West 2.0 mph 7.0 mph 83 % 0.00 in
03:55 25.9 °F 21.5 °F 29.84 in West 2.0 mph 7.0 mph 83 % 0.00 in
04:00 25.3 °F 21.2 °F 29.85 in NW 1.0 mph 4.0 mph 84 % 0.00 in
04:04 24.8 °F 21.0 °F 29.86 in WSW 1.0 mph 4.0 mph 84 % 0.00 in
04:05 25.3 °F 21.2 °F 29.85 in NW 1.0 mph 4.0 mph 84 % 0.00 in
04:10 25.3 °F 21.2 °F 29.85 in NW 1.0 mph 4.0 mph 84 % 0.00 in
04:15 24.9 °F 20.8 °F 29.86 in WSW 1.0 mph 4.0 mph 84 % 0.00 in
04:19 24.5 °F 20.0 °F 29.87 in Calm   6.0 mph 83 % 0.00 in
04:20 24.9 °F 20.8 °F 29.86 in WSW 1.0 mph 4.0 mph 84 % 0.00 in
04:25 24.9 °F 20.8 °F 29.86 in WSW 1.0 mph 4.0 mph 84 % 0.00 in
04:30 24.6 °F 20.2 °F 29.86 in WSW 1.0 mph 6.0 mph 83 % 0.00 in
04:34 24.2 °F 20.0 °F 29.87 in East 2.0 mph 3.0 mph 83 % 0.00 in
04:35 24.6 °F 20.2 °F 29.86 in WSW 1.0 mph 6.0 mph 83 % 0.00 in
04:40 24.6 °F 20.2 °F 29.86 in WSW 1.0 mph 6.0 mph 83 % 0.00 in
04:45 24.3 °F 19.9 °F 29.87 in East 1.0 mph 3.0 mph 83 % 0.00 in
04:49 24.0 °F 20.0 °F 29.88 in Calm   2.0 mph 83 % 0.00 in
04:50 24.3 °F 19.9 °F 29.87 in East 1.0 mph 3.0 mph 83 % 0.00 in
04:55 24.3 °F 19.9 °F 29.87 in East 1.0 mph 3.0 mph 83 % 0.00 in
05:00 24.1 °F 19.7 °F 29.88 in Calm   3.0 mph 83 % 0.00 in
05:04 23.7 °F 19.0 °F 29.88 in Calm     83 % 0.00 in
05:05 24.1 °F 19.7 °F 29.88 in Calm   3.0 mph 83 % 0.00 in
05:10 24.1 °F 19.7 °F 29.88 in Calm   3.0 mph 83 % 0.00 in
05:15 23.8 °F 19.4 °F 29.88 in Calm   2.0 mph 83 % 0.00 in
05:19 23.3 °F 19.0 °F 29.88 in Calm   3.0 mph 83 % 0.00 in
05:20 23.8 °F 19.4 °F 29.88 in Calm   2.0 mph 83 % 0.00 in
05:25 23.8 °F 19.4 °F 29.88 in Calm   2.0 mph 83 % 0.00 in
05:30 23.4 °F 19.0 °F 29.88 in Calm   4.0 mph 83 % 0.00 in
05:34 23.2 °F 19.0 °F 29.88 in Calm   2.0 mph 83 % 0.00 in
05:35 23.4 °F 19.0 °F 29.88 in Calm   4.0 mph 83 % 0.00 in
05:40 23.4 °F 19.0 °F 29.88 in Calm   4.0 mph 83 % 0.00 in
05:45 23.2 °F 18.8 °F 29.88 in Calm   3.0 mph 83 % 0.00 in
05:49 22.9 °F 19.0 °F 29.89 in Calm   4.0 mph 83 % 0.00 in
05:50 23.2 °F 18.8 °F 29.88 in Calm   3.0 mph 83 % 0.00 in
05:55 23.2 °F 18.8 °F 29.88 in Calm   3.0 mph 83 % 0.00 in
06:00 23.0 °F 18.6 °F 29.89 in Calm   4.0 mph 83 % 0.00 in
06:04 22.7 °F 18.0 °F 29.90 in Calm     83 % 0.00 in
06:05 23.0 °F 18.6 °F 29.89 in Calm   4.0 mph 83 % 0.00 in
06:10 23.0 °F 18.6 °F 29.89 in Calm   4.0 mph 83 % 0.00 in
06:15 22.8 °F 18.4 °F 29.89 in Calm   2.0 mph 83 % 0.00 in
06:19 22.5 °F 18.0 °F 29.90 in WSW 1.0 mph 2.0 mph 84 % 0.00 in
06:20 22.8 °F 18.4 °F 29.89 in Calm   2.0 mph 83 % 0.00 in
06:25 22.8 °F 18.4 °F 29.89 in Calm   2.0 mph 83 % 0.00 in
06:30 22.6 °F 18.2 °F 29.90 in Calm     83 % 0.00 in
06:34 22.4 °F 18.0 °F 29.91 in WSW 1.0 mph 2.0 mph 84 % 0.00 in
06:35 22.6 °F 18.2 °F 29.90 in Calm     83 % 0.00 in
06:40 22.6 °F 18.2 °F 29.90 in Calm     83 % 0.00 in
06:45 22.4 °F 18.3 °F 29.91 in Calm   2.0 mph 84 % 0.00 in
06:49 22.3 °F 19.0 °F 29.92 in Calm     85 % 0.00 in
06:50 22.4 °F 18.3 °F 29.91 in Calm   2.0 mph 84 % 0.00 in
06:55 22.4 °F 18.3 °F 29.91 in Calm   2.0 mph 84 % 0.00 in
07:00 22.4 °F 18.3 °F 29.92 in Calm   3.0 mph 84 % 0.00 in
07:04 22.3 °F 19.0 °F 29.92 in Calm     85 % 0.00 in
07:05 22.4 °F 18.3 °F 29.92 in Calm   3.0 mph 84 % 0.00 in
07:10 22.4 °F 18.3 °F 29.92 in Calm   3.0 mph 84 % 0.00 in
07:15 22.2 °F 18.4 °F 29.92 in Calm   2.0 mph 85 % 0.00 in
07:19 22.5 °F 19.0 °F 29.92 in SW 2.0 mph 4.0 mph 85 % 0.00 in
07:20 22.2 °F 18.4 °F 29.92 in Calm   2.0 mph 85 % 0.00 in
07:25 22.2 °F 18.4 °F 29.92 in Calm   2.0 mph 85 % 0.00 in
07:30 22.4 °F 18.6 °F 29.93 in Calm   4.0 mph 85 % 0.00 in
07:34 23.0 °F 19.0 °F 29.93 in Calm   2.0 mph 85 % 0.00 in
07:35 22.4 °F 18.6 °F 29.93 in Calm   4.0 mph 85 % 0.00 in
07:40 22.4 °F 18.6 °F 29.93 in Calm   4.0 mph 85 % 0.00 in
07:45 22.8 °F 19.0 °F 29.93 in Calm   2.0 mph 85 % 0.00 in
07:49 23.6 °F 20.0 °F 29.93 in Calm   3.0 mph 85 % 0.00 in
07:50 22.8 °F 19.0 °F 29.93 in Calm   2.0 mph 85 % 0.00 in
07:55 22.8 °F 19.0 °F 29.93 in Calm   2.0 mph 85 % 0.00 in
08:00 23.4 °F 19.6 °F 29.93 in Calm   3.0 mph 85 % 0.00 in
08:04 24.5 °F 20.0 °F 29.93 in SW 1.0 mph 4.0 mph 84 % 0.00 in
08:05 23.4 °F 19.6 °F 29.93 in Calm   3.0 mph 85 % 0.00 in
08:10 23.4 °F 19.6 °F 29.93 in Calm   3.0 mph 85 % 0.00 in
08:15 24.2 °F 20.4 °F 29.94 in SW 1.0 mph 3.0 mph 85 % 0.00 in
08:19 25.8 °F 21.0 °F 29.93 in Calm   4.0 mph 83 % 0.00 in
08:20 24.2 °F 20.4 °F 29.94 in SW 1.0 mph 3.0 mph 85 % 0.00 in
08:25 24.2 °F 20.4 °F 29.94 in SW 1.0 mph 3.0 mph 85 % 0.00 in
08:30 25.4 °F 21.0 °F 29.94 in SSW 1.0 mph 7.0 mph 83 % 0.00 in
08:34 27.3 °F 22.0 °F 29.93 in South 3.0 mph 5.0 mph 81 % 0.00 in
08:35 25.4 °F 21.0 °F 29.94 in SSW 1.0 mph 7.0 mph 83 % 0.00 in
08:40 25.4 °F 21.0 °F 29.94 in SSW 1.0 mph 7.0 mph 83 % 0.00 in
08:45 26.9 °F 22.1 °F 29.93 in SSW 1.0 mph 5.0 mph 82 % 0.00 in
08:49 28.6 °F 23.0 °F 29.93 in Calm   2.0 mph 79 % 0.00 in
08:50 26.9 °F 22.1 °F 29.93 in SSW 1.0 mph 5.0 mph 82 % 0.00 in
08:55 26.9 °F 22.1 °F 29.93 in SSW 1.0 mph 5.0 mph 82 % 0.00 in
09:00 28.1 °F 22.8 °F 29.93 in South 1.0 mph 3.0 mph 80 % 0.00 in
09:04 29.6 °F 23.0 °F 29.94 in Calm   8.0 mph 76 % 0.00 in
09:05 28.1 °F 22.8 °F 29.93 in South 1.0 mph 3.0 mph 80 % 0.00 in
09:10 28.1 °F 22.8 °F 29.93 in South 1.0 mph 3.0 mph 80 % 0.00 in
09:15 29.3 °F 23.0 °F 29.94 in Calm   8.0 mph 77 % 0.00 in
09:19 31.0 °F 24.0 °F 29.94 in North 2.0 mph 4.0 mph 74 % 0.00 in
09:20 29.3 °F 23.0 °F 29.94 in Calm   8.0 mph 77 % 0.00 in
09:25 29.3 °F 23.0 °F 29.94 in Calm   8.0 mph 77 % 0.00 in
09:30 30.5 °F 23.9 °F 29.94 in SE 1.0 mph 4.0 mph 76 % 0.00 in
09:34 32.4 °F 24.0 °F 29.94 in North 3.0 mph 4.0 mph 72 % 0.00 in
09:35 30.5 °F 23.9 °F 29.94 in SE 1.0 mph 4.0 mph 76 % 0.00 in
09:40 30.5 °F 23.9 °F 29.94 in SE 1.0 mph 4.0 mph 76 % 0.00 in
09:45 31.8 °F 24.5 °F 29.94 in North 1.0 mph 4.0 mph 74 % 0.00 in
09:50 33.9 °F 24.0 °F 29.94 in North 1.0 mph 2.0 mph 68 % 0.00 in
09:55 31.8 °F 24.5 °F 29.94 in North 1.0 mph 4.0 mph 74 % 0.00 in
10:00 33.4 °F 24.7 °F 29.94 in North 1.0 mph 5.0 mph 70 % 0.00 in
10:05 34.8 °F 24.0 °F 29.94 in Calm   4.0 mph 66 % 0.00 in
10:10 33.4 °F 24.7 °F 29.94 in North 1.0 mph 5.0 mph 70 % 0.00 in
10:15 34.4 °F 24.2 °F 29.94 in North 1.0 mph 5.0 mph 66 % 0.00 in
10:20 35.9 °F 24.0 °F 29.96 in North 4.0 mph 8.0 mph 63 % 0.00 in
10:25 34.4 °F 24.2 °F 29.94 in North 1.0 mph 5.0 mph 66 % 0.00 in
10:30 35.8 °F 25.2 °F 29.95 in North 1.0 mph 6.0 mph 65 % 0.00 in
10:35 36.2 °F 25.0 °F 29.96 in North 3.0 mph 5.0 mph 64 % 0.00 in
10:40 35.8 °F 25.2 °F 29.95 in North 1.0 mph 6.0 mph 65 % 0.00 in
10:45 36.1 °F 25.1 °F 29.96 in North 2.0 mph 8.0 mph 64 % 0.00 in
10:50 36.6 °F 25.0 °F 29.97 in North 3.0 mph 6.0 mph 62 % 0.01 in
10:55 36.1 °F 25.1 °F 29.96 in North 2.0 mph 8.0 mph 64 % 0.00 in
11:00 36.7 °F 25.7 °F 29.96 in North 2.0 mph 5.0 mph 64 % 0.00 in
11:05 37.1 °F 25.0 °F 29.98 in North 2.0 mph 4.0 mph 63 % 0.01 in
11:10 36.7 °F 25.7 °F 29.96 in North 2.0 mph 5.0 mph 64 % 0.00 in
11:15 36.8 °F 26.1 °F 29.97 in North 2.0 mph 6.0 mph 65 % 0.00 in
11:20 37.5 °F 25.0 °F 29.98 in North 1.0 mph 4.0 mph 62 % 0.01 in
11:25 36.8 °F 26.1 °F 29.97 in North 2.0 mph 6.0 mph 65 % 0.00 in
11:30 38.1 °F 26.2 °F 29.99 in North 2.0 mph 2.0 mph 62 % 0.00 in
11:35 38.3 °F 25.0 °F 29.99 in Calm   4.0 mph 60 % 0.01 in
11:40 38.4 °F 25.7 °F 29.99 in North 2.0 mph 4.0 mph 60 % 0.00 in
11:45 38.7 °F 25.6 °F 29.99 in North 2.0 mph 3.0 mph 59 % 0.00 in
11:50 38.8 °F 25.0 °F 29.99 in North 2.0 mph 6.0 mph 59 % 0.00 in
11:59 38.9 °F 25.8 °F 29.99 in North 2.0 mph 3.0 mph 59 % 0.00 in
12:04 39.9 °F 26.3 °F 30.00 in North 1.0 mph 4.0 mph 58 % 0.00 in
12:09 40.2 °F 26.6 °F 30.00 in North 4.0 mph 5.0 mph 58 % 0.00 in
12:14 40.1 °F 26.1 °F 30.00 in North 2.0 mph 3.0 mph 57 % 0.00 in
12:19 40.5 °F 26.9 °F 30.00 in North 1.0 mph 3.0 mph 58 % 0.00 in
12:24 40.8 °F 28.4 °F 30.00 in North 3.0 mph 3.0 mph 61 % 0.00 in
12:29 40.8 °F 28.0 °F 30.00 in South 5.0 mph 6.0 mph 60 % 0.00 in
12:34 40.6 °F 27.8 °F 30.00 in West 3.0 mph 6.0 mph 60 % 0.00 in
12:39 40.6 °F 28.6 °F 30.00 in Calm   4.0 mph 62 % 0.00 in
12:44 40.3 °F 27.9 °F 30.00 in SSE 2.0 mph 6.0 mph 61 % 0.00 in
12:49 40.6 °F 29.0 °F 30.00 in South 2.0 mph 3.0 mph 63 % 0.00 in
12:54 40.9 °F 28.5 °F 30.00 in SW 2.0 mph 5.0 mph 61 % 0.04 in
12:59 40.5 °F 28.1 °F 30.00 in SSW 5.0 mph 8.0 mph 61 % 0.04 in
13:04 40.8 °F 28.4 °F 30.00 in WSW 3.0 mph 4.0 mph 61 % 0.04 in
13:09 41.1 °F 27.5 °F 30.00 in WNW 3.0 mph 3.0 mph 58 % 0.00 in
13:14 41.1 °F 27.9 °F 30.00 in WSW 4.0 mph 7.0 mph 59 % 0.00 in
13:19 41.0 °F 27.8 °F 30.00 in Calm   1.0 mph 59 % 0.00 in
13:20 41.0 °F 27.8 °F 30.00 in WSW 2.0 mph   59 % 0.00 in
13:25 41.1 °F 27.9 °F 30.00 in WSW 2.0 mph 2.0 mph 59 % 0.00 in
13:30 41.1 °F 27.9 °F 30.00 in WSW 2.0 mph 2.0 mph 59 % 0.00 in
13:35 41.5 °F 28.0 °F 30.00 in WNW 4.0 mph 9.0 mph 60 % 0.02 in
13:40 41.3 °F 27.2 °F 30.01 in WSW 2.0 mph 9.0 mph 57 % 0.00 in
13:45 41.3 °F 27.2 °F 30.01 in WSW 2.0 mph 9.0 mph 57 % 0.00 in
13:50 42.0 °F 28.0 °F 30.00 in West 3.0 mph 10.0 mph 58 % 0.03 in
13:55 41.6 °F 27.9 °F 30.01 in West 2.0 mph 10.0 mph 58 % 0.00 in
14:00 41.6 °F 27.9 °F 30.01 in West 2.0 mph 10.0 mph 58 % 0.00 in
14:05 41.9 °F 28.0 °F 30.01 in WNW 4.0 mph 9.0 mph 58 % 0.02 in
14:10 41.8 °F 27.7 °F 30.01 in West 2.0 mph 8.0 mph 57 % 0.00 in
14:15 41.8 °F 27.7 °F 30.01 in West 2.0 mph 8.0 mph 57 % 0.00 in
14:20 42.6 °F 28.5 °F 30.01 in WNW 2.0 mph 9.0 mph 57 % 0.00 in
14:24 42.6 °F 29.0 °F 30.01 in South 1.0 mph 5.0 mph 58 % 0.02 in
14:25 42.6 °F 28.5 °F 30.01 in WNW 2.0 mph 9.0 mph 57 % 0.00 in
14:30 42.6 °F 28.5 °F 30.01 in WNW 2.0 mph 9.0 mph 57 % 0.00 in
14:35 41.7 °F 27.0 °F 30.02 in Calm   8.0 mph 57 % 0.02 in
14:40 41.9 °F 27.4 °F 30.01 in West 2.0 mph 8.0 mph 56 % 0.00 in
14:45 41.9 °F 27.4 °F 30.01 in West 2.0 mph 8.0 mph 56 % 0.00 in
14:50 42.1 °F 27.5 °F 30.02 in WNW 2.0 mph 7.0 mph 56 % 0.00 in
14:55 42.1 °F 27.5 °F 30.02 in WNW 2.0 mph 7.0 mph 56 % 0.00 in
15:00 42.1 °F 27.0 °F 30.02 in WNW 2.0 mph 4.0 mph 55 % 0.01 in
15:05 42.4 °F 28.0 °F 30.02 in West 3.0 mph 6.0 mph 56 % 0.01 in
15:10 42.4 °F 27.8 °F 30.02 in West 2.0 mph 6.0 mph 56 % 0.00 in
15:15 42.4 °F 27.8 °F 30.02 in West 2.0 mph 6.0 mph 56 % 0.00 in
15:20 42.7 °F 27.7 °F 30.02 in West 2.0 mph 6.0 mph 55 % 0.00 in
15:21 42.2 °F 26.0 °F 30.02 in West 2.0 mph 8.0 mph 54 % 0.00 in
15:25 42.7 °F 27.7 °F 30.02 in West 2.0 mph 6.0 mph 55 % 0.00 in
15:30 42.7 °F 27.7 °F 30.02 in West 2.0 mph 6.0 mph 55 % 0.00 in
15:35 42.3 °F 26.9 °F 30.02 in WNW 2.0 mph 8.0 mph 54 % 0.00 in
15:36 42.3 °F 27.0 °F 30.03 in West 1.0 mph 7.0 mph 55 % 0.00 in
15:40 42.3 °F 26.9 °F 30.02 in WNW 2.0 mph 8.0 mph 54 % 0.00 in
15:45 42.3 °F 26.9 °F 30.02 in WNW 2.0 mph 8.0 mph 54 % 0.00 in
15:50 42.5 °F 27.0 °F 30.03 in West 1.0 mph 6.0 mph 55 % 0.00 in
15:55 42.5 °F 27.9 °F 30.02 in West 1.0 mph 7.0 mph 56 % 0.00 in
16:00 42.5 °F 27.9 °F 30.02 in West 1.0 mph 7.0 mph 56 % 0.00 in
16:05 42.1 °F 28.0 °F 30.03 in West 2.0 mph 4.0 mph 57 % 0.00 in
16:10 42.2 °F 27.6 °F 30.03 in West 1.0 mph 6.0 mph 56 % 0.00 in
16:15 42.2 °F 27.6 °F 30.03 in West 1.0 mph 6.0 mph 56 % 0.00 in
16:20 41.9 °F 27.0 °F 30.04 in WNW 1.0 mph 3.0 mph 57 % 0.00 in
16:25 42.0 °F 28.3 °F 30.04 in WNW 2.0 mph 4.0 mph 58 % 0.00 in
16:30 42.0 °F 28.3 °F 30.04 in WNW 2.0 mph 4.0 mph 58 % 0.00 in
16:35 41.6 °F 28.0 °F 30.04 in WNW 2.0 mph 4.0 mph 59 % 0.00 in
16:40 41.8 °F 28.1 °F 30.04 in WNW 1.0 mph 3.0 mph 58 % 0.00 in
16:45 41.8 °F 28.1 °F 30.04 in WNW 1.0 mph 3.0 mph 58 % 0.00 in
16:50 41.6 °F 28.0 °F 30.04 in Calm   4.0 mph 60 % 0.00 in
16:55 41.6 °F 27.9 °F 30.05 in WNW 1.0 mph 6.0 mph 58 % 0.00 in
17:00 41.6 °F 27.9 °F 30.05 in WNW 1.0 mph 6.0 mph 58 % 0.00 in
17:05 41.5 °F 29.0 °F 30.05 in Calm   2.0 mph 61 % 0.00 in
17:10 41.5 °F 28.7 °F 30.05 in West 1.0 mph 4.0 mph 60 % 0.00 in
17:15 41.5 °F 28.7 °F 30.05 in West 1.0 mph 4.0 mph 60 % 0.00 in
17:20 41.3 °F 28.9 °F 30.05 in Calm   3.0 mph 61 % 0.00 in
17:21 41.2 °F 29.0 °F 30.05 in Calm   2.0 mph 61 % 0.00 in
17:25 41.3 °F 28.9 °F 30.05 in Calm   3.0 mph 61 % 0.00 in
17:30 41.3 °F 28.9 °F 30.05 in Calm   3.0 mph 61 % 0.00 in
17:35 40.9 °F 28.9 °F 30.05 in Calm   2.0 mph 62 % 0.00 in
17:36 40.8 °F 29.0 °F 30.05 in Calm     62 % 0.00 in
17:40 40.9 °F 28.9 °F 30.05 in Calm   2.0 mph 62 % 0.00 in
17:45 40.9 °F 28.9 °F 30.05 in Calm   2.0 mph 62 % 0.00 in
17:50 40.5 °F 28.5 °F 30.06 in Calm     62 % 0.00 in
17:51 40.2 °F 28.0 °F 30.06 in Calm     63 % 0.00 in
17:55 40.5 °F 28.5 °F 30.06 in Calm     62 % 0.00 in
18:00 40.5 °F 28.5 °F 30.06 in Calm     62 % 0.00 in
18:05 39.8 °F 28.6 °F 30.06 in Calm   2.0 mph 64 % 0.00 in
18:06 39.4 °F 28.0 °F 30.06 in Calm   2.0 mph 64 % 0.00 in
18:10 39.8 °F 28.6 °F 30.06 in Calm   2.0 mph 64 % 0.00 in
18:15 39.8 °F 28.6 °F 30.06 in Calm   2.0 mph 64 % 0.00 in
18:20 38.9 °F 28.1 °F 30.06 in Calm     65 % 0.00 in
18:21 38.6 °F 28.0 °F 30.06 in Calm     66 % 0.00 in
18:25 38.9 °F 28.1 °F 30.06 in Calm     65 % 0.00 in
18:30 38.9 °F 28.1 °F 30.06 in Calm     65 % 0.00 in
18:35 38.1 °F 28.1 °F 30.06 in Calm     67 % 0.00 in
18:36 37.8 °F 28.0 °F 30.06 in Calm     67 % 0.00 in
18:40 38.1 °F 28.1 °F 30.06 in Calm     67 % 0.00 in
18:45 38.1 °F 28.1 °F 30.06 in Calm     67 % 0.00 in
18:50 37.3 °F 27.4 °F 30.07 in Calm     67 % 0.00 in
18:51 36.9 °F 27.0 °F 30.07 in Calm     68 % 0.00 in
18:55 37.3 °F 27.4 °F 30.07 in Calm     67 % 0.00 in
19:00 37.3 °F 27.4 °F 30.07 in Calm     67 % 0.00 in
19:05 36.3 °F 27.1 °F 30.07 in Calm     69 % 0.00 in
19:06 35.7 °F 27.0 °F 30.07 in Calm     70 % 0.00 in
19:10 36.3 °F 27.1 °F 30.07 in Calm     69 % 0.00 in
19:15 36.3 °F 27.1 °F 30.07 in Calm     69 % 0.00 in
19:20 35.2 °F 26.8 °F 30.08 in Calm     71 % 0.00 in
19:21 34.8 °F 27.0 °F 30.07 in Calm     72 % 0.00 in
19:25 35.2 °F 26.8 °F 30.08 in Calm     71 % 0.00 in
19:30 35.2 °F 26.8 °F 30.08 in Calm     71 % 0.00 in
19:35 34.5 °F 26.8 °F 30.08 in Calm     73 % 0.00 in
19:36 34.2 °F 26.0 °F 30.07 in Calm     73 % 0.00 in
19:40 34.5 °F 26.8 °F 30.08 in Calm     73 % 0.00 in
19:45 34.5 °F 26.8 °F 30.08 in Calm     73 % 0.00 in
19:50 33.7 °F 26.6 °F 30.08 in Calm   2.0 mph 75 % 0.00 in
19:51 33.5 °F 27.0 °F 30.07 in Calm   2.0 mph 76 % 0.00 in
19:55 33.7 °F 26.6 °F 30.08 in Calm   2.0 mph 75 % 0.00 in
20:00 33.7 °F 26.6 °F 30.08 in Calm   2.0 mph 75 % 0.00 in
20:05 33.2 °F 26.8 °F 30.07 in Calm   2.0 mph 77 % 0.00 in
20:06 33.1 °F 27.0 °F 30.07 in Calm     77 % 0.00 in
20:10 33.2 °F 26.8 °F 30.07 in Calm   2.0 mph 77 % 0.00 in
20:15 33.2 °F 26.8 °F 30.07 in Calm   2.0 mph 77 % 0.00 in
20:20 32.8 °F 26.4 °F 30.07 in Calm     77 % 0.00 in
20:21 32.5 °F 26.0 °F 30.07 in Calm     77 % 0.00 in
20:25 32.8 °F 26.4 °F 30.07 in Calm     77 % 0.00 in
20:30 32.8 °F 26.4 °F 30.07 in Calm     77 % 0.00 in
20:35 32.2 °F 26.1 °F 30.07 in Calm     78 % 0.00 in
20:36 31.9 °F 26.0 °F 30.07 in Calm     79 % 0.00 in
20:40 32.2 °F 26.1 °F 30.07 in Calm     78 % 0.00 in
20:45 32.2 °F 26.1 °F 30.07 in Calm     78 % 0.00 in
20:50 31.6 °F 25.8 °F 30.08 in Calm     79 % 0.00 in
20:51 31.3 °F 26.0 °F 30.08 in Calm     79 % 0.00 in
20:55 31.6 °F 25.8 °F 30.08 in Calm     79 % 0.00 in
21:00 31.6 °F 25.8 °F 30.08 in Calm     79 % 0.00 in
21:05 31.0 °F 25.3 °F 30.09 in Calm     79 % 0.00 in
21:06 30.7 °F 25.0 °F 30.09 in Calm   3.0 mph 80 % 0.00 in
21:10 31.0 °F 25.3 °F 30.09 in Calm     79 % 0.00 in
21:15 31.0 °F 25.3 °F 30.09 in Calm     79 % 0.00 in
21:20 30.6 °F 25.5 °F 30.10 in Calm   3.0 mph 81 % 0.00 in
21:21 30.6 °F 26.0 °F 30.09 in Calm     82 % 0.00 in
21:25 30.6 °F 25.5 °F 30.10 in Calm   3.0 mph 81 % 0.00 in
21:30 30.6 °F 25.5 °F 30.10 in Calm   3.0 mph 81 % 0.00 in
21:35 30.5 °F 25.7 °F 30.10 in Calm     82 % 0.00 in
21:36 30.4 °F 26.0 °F 30.10 in Calm     82 % 0.00 in
21:40 30.5 °F 25.7 °F 30.10 in Calm     82 % 0.00 in
21:45 30.5 °F 25.7 °F 30.10 in Calm     82 % 0.00 in
21:50 30.1 °F 25.3 °F 30.10 in Calm     82 % 0.00 in
21:51 29.9 °F 25.0 °F 30.10 in Calm     83 % 0.00 in
21:55 30.1 °F 25.3 °F 30.10 in Calm     82 % 0.00 in
22:00 30.1 °F 25.3 °F 30.10 in Calm     82 % 0.00 in
22:05 29.8 °F 25.3 °F 30.10 in Calm     83 % 0.00 in
22:06 29.8 °F 26.0 °F 30.10 in Calm     84 % 0.00 in
22:10 29.8 °F 25.3 °F 30.10 in Calm     83 % 0.00 in
22:15 29.8 °F 25.3 °F 30.10 in Calm     83 % 0.00 in
22:20 29.8 °F 25.8 °F 30.10 in Calm     85 % 0.00 in
22:21 29.8 °F 26.0 °F 30.10 in Calm     85 % 0.00 in
22:25 29.8 °F 25.8 °F 30.10 in Calm     85 % 0.00 in
22:30 29.8 °F 25.8 °F 30.10 in Calm     85 % 0.00 in
22:35 29.7 °F 25.8 °F 30.10 in Calm     85 % 0.00 in
22:36 29.6 °F 26.0 °F 30.10 in Calm     85 % 0.00 in
22:40 29.7 °F 25.8 °F 30.10 in Calm     85 % 0.00 in
22:45 29.7 °F 25.8 °F 30.10 in Calm     85 % 0.00 in
22:50 29.5 °F 25.6 °F 30.10 in Calm     85 % 0.00 in
22:51 29.4 °F 26.0 °F 30.10 in Calm     85 % 0.00 in
22:55 29.5 °F 25.6 °F 30.10 in Calm     85 % 0.00 in
23:00 29.5 °F 25.6 °F 30.10 in Calm     85 % 0.00 in
23:05 29.3 °F 25.4 °F 30.10 in Calm     85 % 0.00 in
23:06 29.3 °F 26.0 °F 30.10 in Calm   2.0 mph 86 % 0.00 in
23:10 29.3 °F 25.4 °F 30.10 in Calm     85 % 0.00 in
23:15 29.3 °F 25.4 °F 30.10 in Calm     85 % 0.00 in
23:20 29.3 °F 25.6 °F 30.10 in Calm   2.0 mph 86 % 0.00 in
23:21 29.3 °F 26.0 °F 30.10 in Calm     86 % 0.00 in
23:25 29.3 °F 25.6 °F 30.10 in Calm   2.0 mph 86 % 0.00 in
23:30 29.3 °F 25.6 °F 30.10 in Calm   2.0 mph 86 % 0.00 in
23:35 29.3 °F 25.6 °F 30.10 in Calm     86 % 0.00 in
23:36 29.3 °F 26.0 °F 30.09 in Calm     86 % 0.00 in
23:40 29.3 °F 25.6 °F 30.10 in Calm     86 % 0.00 in
23:45 29.3 °F 25.6 °F 30.10 in Calm     86 % 0.00 in
23:50 29.4 °F 26.0 °F 30.10 in Calm     87 % 0.00 in
23:51 29.5 °F 26.0 °F 30.09 in Calm     87 % 0.00 in
23:55 29.4 °F 26.0 °F 30.10 in Calm     87 % 0.00 in
Des Moines Weather and Climate
Compliments of Weather Underground - 4.5 mb

Script developed by  Jim McMurry - jmcmurry@mwt.net Adapted for the template by  Wim van der Kuil - Leuven-Template.eu

You find our weather info also at:

Weather Underground

Equipment we use:

Weather-station
Davis VP2 Plus

Weather-program
Davis Weatherlink.Com

Weather-server
iMac (Retina 4K, 21.5-inch, Late 2015)

Provider
Hostmonster.com

Davis VP2 Plus

Davis Weatherlink.Com

iMac (Retina 4K, 21.5-inch, Late 2015)

Hostmonster.com